Terminal Aerodrome Forecast
Issued by NWS Charleston, WV

Current Version | Previous Version | Text Only | Print | Product List | Glossary Off
Versions: 1 2 3 4 5 6 7 8 9 10 11 12 13 14 15 16 17 18 19 20 21 22 23 24 25 26 27

000
FTUS41 KRLX 060300 AAA
TAFCRW
TAF AMD
KCRW 060300Z 0603/0624 06009KT P6SM BKN150
     FM061000 13007KT 6SM -RA OVC040
     FM061300 13008KT 4SM -RA OVC025
     FM062000 17006KT 2SM -RA OVC007
     FM062300 21006KT 4SM -RA OVC010=

USA.gov is the U.S. government's official web portal to all federal, state and local government web resources and services.